• Join FlightAware (Why Join?)
  • Login
  • US Flag 
 
09:54AM EST


 

Airport Tracker/Info


-or-


 

Live Flight TrackerFlight Track Log ✈ JBU1329 ✈ 27-May-2013 ✈ KBOS - KBWI

Flight Track Log - Related Links

Times and Time Zones

All times are in EDT time to prevent confusion due to time zone crossing. See the JBU1329 flight status page for this flight to view local times or setup timezone preferences in your user account.

Time Position Orientation Groundspeed Altitude Reporting Facility
EDT Latitude Longitude Course Direction KTS MPH feet Rate Location/Type
09:13AM 42.3500 -71.0167 240° Southwest 139 160 700  Level KA90
09:15AM 42.2681 -71.1467 230° Southwest 223 257 6,500 2,760 Climbing Boston Center
09:16AM 42.2663 -70.7673 228° Southwest  Level FlightAware Approximate
09:16AM 42.2358 -71.2456 246° West 250 288 10,300  Level Boston Center
09:17AM 42.2222 -70.8427 240° Southwest  Level FlightAware Approximate
09:17AM 42.2158 -71.3356 253° West 279 321 12,400  Level Boston Center
09:18AM 42.1864 -70.9261 240° Southwest  Level FlightAware Approximate
09:18AM 42.1900 -71.4650 255° West 318 366 15,500  Level Boston Center
09:19AM 42.1658 -71.5775 254° West 338 389 17,800 2,460 Climbing Boston Center
09:20AM 42.1397 -71.7206 256° West 349 402 20,400 2,460 Climbing Boston Center
09:21AM 42.1133 -71.8497 255° West 360 414 22,700 2,100 Climbing Boston Center
09:22AM 42.0828 -71.9842 253° West 365 420 24,700 1,800 Climbing Boston Center
09:23AM 42.0206 -72.1103 236° Southwest 383 441 26,400 1,680 Climbing Boston Center
09:24AM 41.9583 -72.2419 238° Southwest 403 464 28,200 1,440 Climbing Boston Center
09:25AM 41.8897 -72.3758 235° Southwest 427 491 29,300 1,500 Climbing Boston Center
09:26AM 41.8253 -72.5042 236° Southwest 427 491 31,300 1,320 Climbing Boston Center
09:27AM 41.7603 -72.6350 236° Southwest 427 491 32,000 300 Climbing Boston Center
09:28AM 41.7061 -72.7431 236° Southwest 427 491 32,000  Level Boston Center
09:29AM 41.6283 -72.9011 237° Southwest 432 497 32,000  Level Boston Center
09:30AM 41.5611 -73.0339 236° Southwest 432 497 32,000  Level Boston Center
09:31AM 41.4978 -73.1661 237° Southwest 432 497 32,000  Level Boston Center
09:32AM 41.4281 -73.2956 234° Southwest 432 497 32,000  Level Boston Center
09:34AM 41.2822 -73.5817 236° Southwest 434 499 32,000  Level New York Center
09:35AM 41.2083 -73.7111 233° Southwest 440 506 32,000  Level New York Center
09:36AM 41.1322 -73.8372 231° Southwest 445 512 32,000  Level New York Center
09:37AM 41.0581 -73.9658 233° Southwest 450 518 32,000  Level New York Center
09:38AM 40.9817 -74.0886 231° Southwest 450 518 32,000 -600 Level New York Center
09:39AM 40.8967 -74.2244 230° Southwest 450 518 30,800 -1,800 Descending New York Center
09:40AM 40.8197 -74.3522 232° Southwest 450 518 28,400 -1,440 Descending New York Center
09:41AM 40.7450 -74.4769 232° Southwest 450 518 28,000 -240 Descending New York Center
09:42AM 40.6664 -74.5931 228° Southwest 444 511 28,000 -300 Level New York Center
09:43AM 40.5831 -74.7169 228° Southwest 444 511 27,500 -900 Descending New York Center
09:44AM 40.5044 -74.8297 228° Southwest 444 511 26,300 -1,200 Descending New York Center
09:45AM 40.4253 -74.9478 229° Southwest 439 505 25,200 -660 Descending New York Center
09:46AM 40.3483 -75.0575 227° Southwest 434 499 25,000 -420 Descending New York Center
09:47AM 40.2711 -75.1697 228° Southwest 428 493 24,400 -1,380 Descending New York Center
09:48AM 40.1961 -75.2817 229° Southwest 423 487 22,300 -2,160 Descending New York Center
09:49AM 40.1192 -75.3881 227° Southwest 423 487 20,100 -2,100 Descending New York Center
09:50AM 40.0439 -75.4942 227° Southwest 410 472 18,100 -1,200 Descending New York Center
09:51AM 39.9797 -75.5847 227° Southwest 393 452 17,800 -600 Descending New York Center
09:52AM 39.9044 -75.6958 229° Southwest 388 447 16,900 -960 Descending New York Center
09:53AM 39.8522 -75.7978 236° Southwest 377 434 15,900 -1,260 Descending New York Center
09:54AM 39.7908 -75.9150 236° Southwest 370 426 14,400 -1,380 Descending New York Center
09:56AM 39.6833 -76.1167 235° Southwest 346 398 12,000 -1,080 Descending Potomac TRACON
09:57AM 39.6167 -76.1833 218° Southwest 291 335 11,300 -1,140 Descending Potomac TRACON
09:58AM 39.5667 -76.2500 226° Southwest 286 329 9,700 -1,620 Descending Potomac TRACON
09:59AM 39.5000 -76.3167 218° Southwest 279 321 8,200 -1,740 Descending Potomac TRACON
10:00AM 39.4333 -76.3833 218° Southwest 275 316 6,300 -1,560 Descending Potomac TRACON
10:01AM 39.3667 -76.4000 191° South 273 314 4,900 -1,200 Descending Potomac TRACON
10:02AM 39.3000 -76.4167 191° South 264 304 4,000 -660 Descending Potomac TRACON
10:03AM 39.2333 -76.4333 191° South 223 257 3,700 -540 Descending Potomac TRACON
10:04AM 39.1833 -76.4667 207° Southwest 218 251 3,000 -420 Descending Potomac TRACON
10:05AM 39.1500 -76.5000 218° Southwest 174 200 3,000  Level Potomac TRACON